LFSL

Brive–Souillac Airport

Brive-la-Gaillarde, France
TAF AMD LFSL 170357Z 1703/1712 18006KT 9999 BKN012 TEMPO 1703/1708 4000 RA OVC003 TEMPO 1708/1712 BKN008
Issued Valid From Valid To
Jan-17 @ 03:57 UTC
(52 minutes ago)
Jan-17 @ 03:00 UTC
(2 hours ago)
Jan-17 @ 12:00 UTC
(in 7 hours)
Jan-17 @ 03:00 to Jan-17 @ 12:00
TAF AMD LFSL 170357Z 1703/1712 18006KT 9999 BKN012
Wind Visibility Clouds
180° at 6 knots 10,000+ meters
  • Broken at 1,200' AGL
Temporary Jan-17 @ 03:00 to Jan-17 @ 08:00
TEMPO 1703/1708 4000 RA OVC003
Visibility Clouds Conditions
4,007 meters
  • Overcast at 300' AGL
  • Rain
Temporary Jan-17 @ 08:00 to Jan-17 @ 12:00
TEMPO 1708/1712 BKN008
Clouds
  • Broken at 800' AGL
TAF AMD LFSL 170357Z 1703/1712 18006KT 9999 BKN012 TEMPO 1703/1708 4000 RA OVC003 TEMPO 1708/1712 BKN008
Issued Jan-17 @ 03:57 UTC
(52 minutes ago)
Valid From Jan-17 @ 03:00 UTC
(2 hours ago)
Valid To Jan-17 @ 12:00 UTC
(in 7 hours)
Jan-17 @ 03:00 - Jan-17 @ 12:00
Wind Visibility
180° at 6 knots 10,000+ meters
Clouds
  • Broken at 1,200' AGL
Temporary Jan-17 @ 03:00 - Jan-17 @ 08:00
Clouds
  • Overcast at 300' AGL
Conditions
  • Rain
Temporary Jan-17 @ 08:00 - Jan-17 @ 12:00
Clouds
  • Broken at 800' AGL